sensor_id;sensor_type;location;lat;lon;timestamp;P1;durP1;ratioP1;P2;durP2;ratioP2
3050;SDS011;1535;51.098;6.414;2023-02-10T00:01:04;59.03;;;36.90;;
3050;SDS011;1535;51.098;6.414;2023-02-10T00:03:34;57.73;;;36.57;;
3050;SDS011;1535;51.098;6.414;2023-02-10T00:06:02;58.73;;;35.70;;
3050;SDS011;1535;51.098;6.414;2023-02-10T00:08:29;55.90;;;37.70;;
3050;SDS011;1535;51.098;6.414;2023-02-10T00:10:56;57.60;;;35.90;;
3050;SDS011;1535;51.098;6.414;2023-02-10T00:13:24;54.10;;;36.67;;
3050;SDS011;1535;51.098;6.414;2023-02-10T00:15:52;49.47;;;35.30;;
3050;SDS011;1535;51.098;6.414;2023-02-10T00:18:19;54.20;;;35.67;;
3050;SDS011;1535;51.098;6.414;2023-02-10T00:20:48;56.47;;;37.53;;
3050;SDS011;1535;51.098;6.414;2023-02-10T00:23:15;60.23;;;36.53;;
3050;SDS011;1535;51.098;6.414;2023-02-10T00:25:42;51.43;;;33.90;;
3050;SDS011;1535;51.098;6.414;2023-02-10T00:28:09;55.33;;;35.47;;
3050;SDS011;1535;51.098;6.414;2023-02-10T00:30:37;58.43;;;34.87;;
3050;SDS011;1535;51.098;6.414;2023-02-10T00:33:04;52.83;;;33.20;;
3050;SDS011;1535;51.098;6.414;2023-02-10T00:35:31;55.20;;;35.07;;
3050;SDS011;1535;51.098;6.414;2023-02-10T00:38:00;57.03;;;35.60;;
3050;SDS011;1535;51.098;6.414;2023-02-10T00:40:27;51.80;;;35.33;;
3050;SDS011;1535;51.098;6.414;2023-02-10T00:42:53;53.67;;;36.33;;
3050;SDS011;1535;51.098;6.414;2023-02-10T00:45:21;59.23;;;34.90;;
3050;SDS011;1535;51.098;6.414;2023-02-10T00:47:49;57.40;;;35.67;;
3050;SDS011;1535;51.098;6.414;2023-02-10T00:50:16;59.20;;;35.13;;
3050;SDS011;1535;51.098;6.414;2023-02-10T00:52:43;54.50;;;35.67;;
3050;SDS011;1535;51.098;6.414;2023-02-10T00:55:12;49.80;;;34.00;;
3050;SDS011;1535;51.098;6.414;2023-02-10T00:57:38;61.10;;;35.77;;
3050;SDS011;1535;51.098;6.414;2023-02-10T01:00:05;62.50;;;39.00;;
3050;SDS011;1535;51.098;6.414;2023-02-10T01:02:33;61.20;;;38.23;;
3050;SDS011;1535;51.098;6.414;2023-02-10T01:05:00;61.33;;;37.97;;
3050;SDS011;1535;51.098;6.414;2023-02-10T01:07:28;46.43;;;34.27;;
3050;SDS011;1535;51.098;6.414;2023-02-10T01:09:55;58.90;;;35.30;;
3050;SDS011;1535;51.098;6.414;2023-02-10T01:12:23;54.53;;;35.00;;
3050;SDS011;1535;51.098;6.414;2023-02-10T01:14:50;61.47;;;35.90;;
3050;SDS011;1535;51.098;6.414;2023-02-10T01:17:16;63.03;;;37.80;;
3050;SDS011;1535;51.098;6.414;2023-02-10T01:19:43;67.80;;;37.90;;
3050;SDS011;1535;51.098;6.414;2023-02-10T01:22:10;50.00;;;36.23;;
3050;SDS011;1535;51.098;6.414;2023-02-10T01:24:37;52.10;;;35.47;;
3050;SDS011;1535;51.098;6.414;2023-02-10T01:27:05;56.13;;;35.53;;
3050;SDS011;1535;51.098;6.414;2023-02-10T01:29:33;58.23;;;36.17;;
3050;SDS011;1535;51.098;6.414;2023-02-10T01:31:59;59.43;;;36.90;;
3050;SDS011;1535;51.098;6.414;2023-02-10T01:34:26;51.50;;;35.87;;
3050;SDS011;1535;51.098;6.414;2023-02-10T01:36:53;54.70;;;35.37;;
3050;SDS011;1535;51.098;6.414;2023-02-10T01:39:20;57.63;;;37.40;;
3050;SDS011;1535;51.098;6.414;2023-02-10T01:41:47;65.00;;;35.40;;
3050;SDS011;1535;51.098;6.414;2023-02-10T01:47:20;50.00;;;33.67;;
3050;SDS011;1535;51.098;6.414;2023-02-10T01:49:48;54.13;;;36.67;;
3050;SDS011;1535;51.098;6.414;2023-02-10T01:52:17;48.93;;;35.27;;
3050;SDS011;1535;51.098;6.414;2023-02-10T01:54:48;48.77;;;36.47;;
3050;SDS011;1535;51.098;6.414;2023-02-10T01:57:18;58.60;;;36.70;;
3050;SDS011;1535;51.098;6.414;2023-02-10T01:59:46;62.13;;;36.57;;
3050;SDS011;1535;51.098;6.414;2023-02-10T02:02:13;54.47;;;36.07;;
3050;SDS011;1535;51.098;6.414;2023-02-10T02:04:46;50.20;;;34.50;;
3050;SDS011;1535;51.098;6.414;2023-02-10T02:07:16;52.20;;;34.37;;
3050;SDS011;1535;51.098;6.414;2023-02-10T02:09:45;51.50;;;36.30;;
3050;SDS011;1535;51.098;6.414;2023-02-10T02:12:15;57.10;;;36.60;;
3050;SDS011;1535;51.098;6.414;2023-02-10T02:14:48;54.63;;;37.43;;
3050;SDS011;1535;51.098;6.414;2023-02-10T02:17:24;62.03;;;38.20;;
3050;SDS011;1535;51.098;6.414;2023-02-10T02:23:20;55.37;;;36.50;;
3050;SDS011;1535;51.098;6.414;2023-02-10T02:28:49;54.53;;;36.03;;
3050;SDS011;1535;51.098;6.414;2023-02-10T02:34:26;57.97;;;37.40;;
3050;SDS011;1535;51.098;6.414;2023-02-10T02:37:00;54.77;;;38.77;;
3050;SDS011;1535;51.098;6.414;2023-02-10T02:39:31;55.43;;;36.93;;
3050;SDS011;1535;51.098;6.414;2023-02-10T02:44:42;57.30;;;37.10;;
3050;SDS011;1535;51.098;6.414;2023-02-10T02:47:13;54.60;;;35.97;;
3050;SDS011;1535;51.098;6.414;2023-02-10T02:49:48;61.40;;;36.07;;
3050;SDS011;1535;51.098;6.414;2023-02-10T02:52:23;61.60;;;39.00;;
3050;SDS011;1535;51.098;6.414;2023-02-10T02:54:58;67.60;;;38.77;;
3050;SDS011;1535;51.098;6.414;2023-02-10T02:57:31;63.50;;;38.50;;
3050;SDS011;1535;51.098;6.414;2023-02-10T03:00:15;54.23;;;36.87;;
3050;SDS011;1535;51.098;6.414;2023-02-10T03:02:46;54.00;;;36.33;;
3050;SDS011;1535;51.098;6.414;2023-02-10T03:05:17;55.27;;;37.47;;
3050;SDS011;1535;51.098;6.414;2023-02-10T03:07:45;62.30;;;37.70;;
3050;SDS011;1535;51.098;6.414;2023-02-10T03:10:12;51.10;;;34.07;;
3050;SDS011;1535;51.098;6.414;2023-02-10T03:12:39;57.77;;;37.90;;
3050;SDS011;1535;51.098;6.414;2023-02-10T03:15:06;62.87;;;38.63;;
3050;SDS011;1535;51.098;6.414;2023-02-10T03:17:33;55.47;;;35.53;;
3050;SDS011;1535;51.098;6.414;2023-02-10T03:20:02;54.03;;;37.70;;
3050;SDS011;1535;51.098;6.414;2023-02-10T03:22:29;54.80;;;36.77;;
3050;SDS011;1535;51.098;6.414;2023-02-10T03:24:56;64.43;;;36.50;;
3050;SDS011;1535;51.098;6.414;2023-02-10T03:27:23;55.20;;;37.33;;
3050;SDS011;1535;51.098;6.414;2023-02-10T03:29:50;52.17;;;35.17;;
3050;SDS011;1535;51.098;6.414;2023-02-10T03:32:17;50.60;;;36.23;;
3050;SDS011;1535;51.098;6.414;2023-02-10T03:34:45;56.93;;;35.03;;
3050;SDS011;1535;51.098;6.414;2023-02-10T03:37:14;56.13;;;36.30;;
3050;SDS011;1535;51.098;6.414;2023-02-10T03:39:41;63.73;;;39.03;;
3050;SDS011;1535;51.098;6.414;2023-02-10T03:42:08;63.73;;;36.40;;
3050;SDS011;1535;51.098;6.414;2023-02-10T03:44:35;58.73;;;35.47;;
3050;SDS011;1535;51.098;6.414;2023-02-10T03:47:02;55.87;;;36.57;;
3050;SDS011;1535;51.098;6.414;2023-02-10T03:49:28;55.40;;;37.97;;
3050;SDS011;1535;51.098;6.414;2023-02-10T03:51:55;52.80;;;36.90;;
3050;SDS011;1535;51.098;6.414;2023-02-10T03:54:24;63.53;;;36.93;;
3050;SDS011;1535;51.098;6.414;2023-02-10T03:56:51;52.23;;;36.10;;
3050;SDS011;1535;51.098;6.414;2023-02-10T03:59:18;57.97;;;37.70;;
3050;SDS011;1535;51.098;6.414;2023-02-10T04:01:45;58.87;;;36.40;;
3050;SDS011;1535;51.098;6.414;2023-02-10T04:04:11;54.40;;;37.80;;
3050;SDS011;1535;51.098;6.414;2023-02-10T04:06:39;54.40;;;37.50;;
3050;SDS011;1535;51.098;6.414;2023-02-10T04:09:06;63.63;;;38.73;;
3050;SDS011;1535;51.098;6.414;2023-02-10T04:11:34;74.40;;;38.17;;
3050;SDS011;1535;51.098;6.414;2023-02-10T04:14:01;59.40;;;37.67;;
3050;SDS011;1535;51.098;6.414;2023-02-10T04:16:28;59.70;;;39.03;;
3050;SDS011;1535;51.098;6.414;2023-02-10T04:18:57;58.73;;;38.87;;
3050;SDS011;1535;51.098;6.414;2023-02-10T04:21:23;52.97;;;36.33;;
3050;SDS011;1535;51.098;6.414;2023-02-10T04:23:50;61.27;;;39.10;;
3050;SDS011;1535;51.098;6.414;2023-02-10T04:26:17;61.50;;;38.33;;
3050;SDS011;1535;51.098;6.414;2023-02-10T04:28:45;49.63;;;36.00;;
3050;SDS011;1535;51.098;6.414;2023-02-10T04:31:12;61.33;;;39.93;;
3050;SDS011;1535;51.098;6.414;2023-02-10T04:33:39;68.13;;;40.07;;
3050;SDS011;1535;51.098;6.414;2023-02-10T04:36:06;51.73;;;37.83;;
3050;SDS011;1535;51.098;6.414;2023-02-10T04:38:33;61.23;;;40.27;;
3050;SDS011;1535;51.098;6.414;2023-02-10T04:41:00;55.80;;;36.03;;
3050;SDS011;1535;51.098;6.414;2023-02-10T04:43:27;63.27;;;38.73;;
3050;SDS011;1535;51.098;6.414;2023-02-10T04:45:56;54.07;;;39.57;;
3050;SDS011;1535;51.098;6.414;2023-02-10T04:48:23;55.10;;;37.70;;
3050;SDS011;1535;51.098;6.414;2023-02-10T04:50:50;63.03;;;37.50;;
3050;SDS011;1535;51.098;6.414;2023-02-10T04:53:17;67.83;;;38.70;;
3050;SDS011;1535;51.098;6.414;2023-02-10T04:55:44;51.93;;;37.40;;
3050;SDS011;1535;51.098;6.414;2023-02-10T04:58:11;56.67;;;39.27;;
3050;SDS011;1535;51.098;6.414;2023-02-10T05:00:38;60.40;;;39.57;;
3050;SDS011;1535;51.098;6.414;2023-02-10T05:03:06;56.53;;;38.93;;
3050;SDS011;1535;51.098;6.414;2023-02-10T05:05:34;57.47;;;40.53;;
3050;SDS011;1535;51.098;6.414;2023-02-10T05:08:01;63.23;;;39.43;;
3050;SDS011;1535;51.098;6.414;2023-02-10T05:10:28;61.97;;;39.70;;
3050;SDS011;1535;51.098;6.414;2023-02-10T05:12:55;58.87;;;40.70;;
3050;SDS011;1535;51.098;6.414;2023-02-10T05:15:22;65.00;;;41.40;;
3050;SDS011;1535;51.098;6.414;2023-02-10T05:17:49;57.67;;;40.73;;
3050;SDS011;1535;51.098;6.414;2023-02-10T05:20:17;73.03;;;41.50;;
3050;SDS011;1535;51.098;6.414;2023-02-10T05:22:44;63.57;;;37.77;;
3050;SDS011;1535;51.098;6.414;2023-02-10T05:25:12;70.77;;;42.50;;
3050;SDS011;1535;51.098;6.414;2023-02-10T05:27:38;64.40;;;41.00;;
3050;SDS011;1535;51.098;6.414;2023-02-10T05:30:05;66.90;;;42.93;;
3050;SDS011;1535;51.098;6.414;2023-02-10T05:32:34;56.37;;;37.10;;
3050;SDS011;1535;51.098;6.414;2023-02-10T05:35:01;61.07;;;40.13;;
3050;SDS011;1535;51.098;6.414;2023-02-10T05:37:30;63.77;;;38.90;;
3050;SDS011;1535;51.098;6.414;2023-02-10T05:39:56;67.43;;;41.87;;
3050;SDS011;1535;51.098;6.414;2023-02-10T05:42:23;66.47;;;40.77;;
3050;SDS011;1535;51.098;6.414;2023-02-10T05:44:50;68.77;;;41.07;;
3050;SDS011;1535;51.098;6.414;2023-02-10T05:47:17;65.73;;;40.50;;
3050;SDS011;1535;51.098;6.414;2023-02-10T05:49:44;71.30;;;41.83;;
3050;SDS011;1535;51.098;6.414;2023-02-10T05:52:11;69.13;;;40.77;;
3050;SDS011;1535;51.098;6.414;2023-02-10T05:54:40;71.07;;;40.87;;
3050;SDS011;1535;51.098;6.414;2023-02-10T05:57:06;65.43;;;40.00;;
3050;SDS011;1535;51.098;6.414;2023-02-10T05:59:34;59.73;;;39.33;;
3050;SDS011;1535;51.098;6.414;2023-02-10T06:02:01;68.93;;;42.00;;
3050;SDS011;1535;51.098;6.414;2023-02-10T06:04:28;67.83;;;40.60;;
3050;SDS011;1535;51.098;6.414;2023-02-10T06:06:55;67.43;;;41.60;;
3050;SDS011;1535;51.098;6.414;2023-02-10T06:09:22;67.00;;;41.80;;
3050;SDS011;1535;51.098;6.414;2023-02-10T06:11:50;75.40;;;41.20;;
3050;SDS011;1535;51.098;6.414;2023-02-10T06:14:18;65.60;;;40.20;;
3050;SDS011;1535;51.098;6.414;2023-02-10T06:16:45;71.47;;;42.43;;
3050;SDS011;1535;51.098;6.414;2023-02-10T06:19:12;63.27;;;41.97;;
3050;SDS011;1535;51.098;6.414;2023-02-10T06:21:39;62.40;;;40.20;;
3050;SDS011;1535;51.098;6.414;2023-02-10T06:24:06;61.47;;;42.77;;
3050;SDS011;1535;51.098;6.414;2023-02-10T06:26:35;82.33;;;43.30;;
3050;SDS011;1535;51.098;6.414;2023-02-10T06:29:03;64.30;;;41.47;;
3050;SDS011;1535;51.098;6.414;2023-02-10T06:31:30;62.40;;;42.63;;
3050;SDS011;1535;51.098;6.414;2023-02-10T06:33:57;64.63;;;41.47;;
3050;SDS011;1535;51.098;6.414;2023-02-10T06:36:24;73.67;;;41.30;;
3050;SDS011;1535;51.098;6.414;2023-02-10T06:38:51;64.87;;;39.70;;
3050;SDS011;1535;51.098;6.414;2023-02-10T06:41:17;62.60;;;38.90;;
3050;SDS011;1535;51.098;6.414;2023-02-10T06:43:44;66.70;;;40.43;;
3050;SDS011;1535;51.098;6.414;2023-02-10T06:46:13;63.63;;;38.40;;
3050;SDS011;1535;51.098;6.414;2023-02-10T06:48:41;64.33;;;38.90;;
3050;SDS011;1535;51.098;6.414;2023-02-10T06:51:07;62.47;;;39.07;;
3050;SDS011;1535;51.098;6.414;2023-02-10T06:53:34;59.00;;;36.87;;
3050;SDS011;1535;51.098;6.414;2023-02-10T06:56:02;69.57;;;39.93;;
3050;SDS011;1535;51.098;6.414;2023-02-10T06:58:29;61.87;;;40.40;;
3050;SDS011;1535;51.098;6.414;2023-02-10T07:00:56;72.03;;;38.97;;
3050;SDS011;1535;51.098;6.414;2023-02-10T07:03:25;63.57;;;39.00;;
3050;SDS011;1535;51.098;6.414;2023-02-10T07:05:52;71.23;;;40.73;;
3050;SDS011;1535;51.098;6.414;2023-02-10T07:08:19;76.17;;;40.70;;
3050;SDS011;1535;51.098;6.414;2023-02-10T07:10:45;64.87;;;39.47;;
3050;SDS011;1535;51.098;6.414;2023-02-10T07:13:12;73.20;;;43.70;;
3050;SDS011;1535;51.098;6.414;2023-02-10T07:15:39;73.77;;;38.77;;
3050;SDS011;1535;51.098;6.414;2023-02-10T07:18:07;60.13;;;37.77;;
3050;SDS011;1535;51.098;6.414;2023-02-10T07:20:35;63.73;;;38.90;;
3050;SDS011;1535;51.098;6.414;2023-02-10T07:23:02;64.17;;;36.07;;
3050;SDS011;1535;51.098;6.414;2023-02-10T07:25:29;56.70;;;37.33;;
3050;SDS011;1535;51.098;6.414;2023-02-10T07:27:56;60.30;;;35.30;;
3050;SDS011;1535;51.098;6.414;2023-02-10T07:30:22;60.27;;;36.93;;
3050;SDS011;1535;51.098;6.414;2023-02-10T07:32:50;58.20;;;35.73;;
3050;SDS011;1535;51.098;6.414;2023-02-10T07:35:17;77.57;;;39.93;;
3050;SDS011;1535;51.098;6.414;2023-02-10T07:37:45;81.93;;;43.43;;
3050;SDS011;1535;51.098;6.414;2023-02-10T07:40:13;57.70;;;36.87;;
3050;SDS011;1535;51.098;6.414;2023-02-10T07:42:39;110.87;;;53.50;;
3050;SDS011;1535;51.098;6.414;2023-02-10T07:45:06;87.47;;;45.30;;
3050;SDS011;1535;51.098;6.414;2023-02-10T07:47:34;83.20;;;45.60;;
3050;SDS011;1535;51.098;6.414;2023-02-10T07:50:01;65.17;;;37.10;;
3050;SDS011;1535;51.098;6.414;2023-02-10T07:52:28;69.27;;;39.80;;
3050;SDS011;1535;51.098;6.414;2023-02-10T07:54:56;68.40;;;39.90;;
3050;SDS011;1535;51.098;6.414;2023-02-10T07:57:23;61.87;;;35.80;;
3050;SDS011;1535;51.098;6.414;2023-02-10T07:59:51;68.17;;;39.07;;
3050;SDS011;1535;51.098;6.414;2023-02-10T08:02:17;59.00;;;35.60;;
3050;SDS011;1535;51.098;6.414;2023-02-10T08:04:44;68.57;;;35.57;;
3050;SDS011;1535;51.098;6.414;2023-02-10T08:07:11;65.93;;;36.97;;
3050;SDS011;1535;51.098;6.414;2023-02-10T08:09:38;69.37;;;38.00;;
3050;SDS011;1535;51.098;6.414;2023-02-10T08:12:07;64.03;;;37.03;;
3050;SDS011;1535;51.098;6.414;2023-02-10T08:14:34;63.93;;;39.20;;
3050;SDS011;1535;51.098;6.414;2023-02-10T08:17:01;72.87;;;39.90;;
3050;SDS011;1535;51.098;6.414;2023-02-10T08:19:28;62.97;;;38.47;;
3050;SDS011;1535;51.098;6.414;2023-02-10T08:21:55;59.47;;;37.40;;
3050;SDS011;1535;51.098;6.414;2023-02-10T08:24:22;70.03;;;41.20;;
3050;SDS011;1535;51.098;6.414;2023-02-10T08:26:49;65.47;;;42.07;;
3050;SDS011;1535;51.098;6.414;2023-02-10T08:29:17;65.37;;;42.03;;
3050;SDS011;1535;51.098;6.414;2023-02-10T08:31:44;74.43;;;44.13;;
3050;SDS011;1535;51.098;6.414;2023-02-10T08:34:14;67.10;;;39.83;;
3050;SDS011;1535;51.098;6.414;2023-02-10T08:36:42;70.27;;;42.20;;
3050;SDS011;1535;51.098;6.414;2023-02-10T08:39:09;86.90;;;44.60;;
3050;SDS011;1535;51.098;6.414;2023-02-10T08:41:37;74.50;;;43.50;;
3050;SDS011;1535;51.098;6.414;2023-02-10T08:44:04;78.70;;;44.07;;
3050;SDS011;1535;51.098;6.414;2023-02-10T08:46:33;70.70;;;42.37;;
3050;SDS011;1535;51.098;6.414;2023-02-10T08:49:00;65.87;;;39.90;;
3050;SDS011;1535;51.098;6.414;2023-02-10T08:51:27;70.73;;;42.70;;
3050;SDS011;1535;51.098;6.414;2023-02-10T08:53:55;67.00;;;41.33;;
3050;SDS011;1535;51.098;6.414;2023-02-10T08:56:22;76.00;;;40.13;;
3050;SDS011;1535;51.098;6.414;2023-02-10T08:58:49;70.27;;;41.77;;
3050;SDS011;1535;51.098;6.414;2023-02-10T09:01:16;73.43;;;42.73;;
3050;SDS011;1535;51.098;6.414;2023-02-10T09:03:46;69.60;;;41.07;;
3050;SDS011;1535;51.098;6.414;2023-02-10T09:06:14;71.20;;;41.23;;
3050;SDS011;1535;51.098;6.414;2023-02-10T09:08:42;77.20;;;40.50;;
3050;SDS011;1535;51.098;6.414;2023-02-10T09:11:11;77.33;;;42.33;;
3050;SDS011;1535;51.098;6.414;2023-02-10T09:13:37;72.43;;;42.80;;
3050;SDS011;1535;51.098;6.414;2023-02-10T09:16:04;83.60;;;43.00;;
3050;SDS011;1535;51.098;6.414;2023-02-10T09:18:31;86.63;;;41.20;;
3050;SDS011;1535;51.098;6.414;2023-02-10T09:21:00;69.00;;;38.07;;
3050;SDS011;1535;51.098;6.414;2023-02-10T09:23:27;75.73;;;38.70;;
3050;SDS011;1535;51.098;6.414;2023-02-10T09:25:54;77.33;;;40.37;;
3050;SDS011;1535;51.098;6.414;2023-02-10T09:28:22;69.20;;;36.73;;
3050;SDS011;1535;51.098;6.414;2023-02-10T09:30:49;74.67;;;38.77;;
3050;SDS011;1535;51.098;6.414;2023-02-10T09:33:16;66.70;;;40.20;;
3050;SDS011;1535;51.098;6.414;2023-02-10T09:35:43;76.87;;;40.83;;
3050;SDS011;1535;51.098;6.414;2023-02-10T09:38:11;74.17;;;41.17;;
3050;SDS011;1535;51.098;6.414;2023-02-10T09:40:43;74.40;;;41.40;;
3050;SDS011;1535;51.098;6.414;2023-02-10T09:43:18;72.80;;;42.40;;
3050;SDS011;1535;51.098;6.414;2023-02-10T09:45:56;78.87;;;40.30;;
3050;SDS011;1535;51.098;6.414;2023-02-10T09:48:30;81.37;;;41.73;;
3050;SDS011;1535;51.098;6.414;2023-02-10T09:51:08;69.57;;;42.20;;
3050;SDS011;1535;51.098;6.414;2023-02-10T09:53:42;73.93;;;43.20;;
3050;SDS011;1535;51.098;6.414;2023-02-10T09:56:12;73.67;;;41.53;;
3050;SDS011;1535;51.098;6.414;2023-02-10T09:58:44;73.03;;;42.03;;
3050;SDS011;1535;51.098;6.414;2023-02-10T10:01:15;83.43;;;46.70;;
3050;SDS011;1535;51.098;6.414;2023-02-10T10:03:45;77.43;;;44.27;;
3050;SDS011;1535;51.098;6.414;2023-02-10T10:06:20;86.03;;;44.83;;
3050;SDS011;1535;51.098;6.414;2023-02-10T10:08:54;73.47;;;43.17;;
3050;SDS011;1535;51.098;6.414;2023-02-10T10:11:30;76.17;;;45.17;;
3050;SDS011;1535;51.098;6.414;2023-02-10T10:14:03;68.70;;;44.73;;
3050;SDS011;1535;51.098;6.414;2023-02-10T10:16:40;79.87;;;46.57;;
3050;SDS011;1535;51.098;6.414;2023-02-10T10:19:29;82.53;;;45.63;;
3050;SDS011;1535;51.098;6.414;2023-02-10T10:22:06;76.40;;;46.27;;
3050;SDS011;1535;51.098;6.414;2023-02-10T10:24:45;88.90;;;48.90;;
3050;SDS011;1535;51.098;6.414;2023-02-10T10:27:33;71.50;;;46.90;;
3050;SDS011;1535;51.098;6.414;2023-02-10T10:30:12;78.07;;;46.40;;
3050;SDS011;1535;51.098;6.414;2023-02-10T10:32:43;78.20;;;46.43;;
3050;SDS011;1535;51.098;6.414;2023-02-10T10:35:14;72.80;;;47.37;;
3050;SDS011;1535;51.098;6.414;2023-02-10T10:37:44;74.00;;;45.50;;
3050;SDS011;1535;51.098;6.414;2023-02-10T10:40:15;86.07;;;47.90;;
3050;SDS011;1535;51.098;6.414;2023-02-10T10:42:45;75.80;;;47.47;;
3050;SDS011;1535;51.098;6.414;2023-02-10T10:45:16;75.70;;;46.70;;
3050;SDS011;1535;51.098;6.414;2023-02-10T10:47:47;75.83;;;47.17;;
3050;SDS011;1535;51.098;6.414;2023-02-10T10:50:20;83.73;;;50.53;;
3050;SDS011;1535;51.098;6.414;2023-02-10T10:52:50;69.33;;;45.00;;
3050;SDS011;1535;51.098;6.414;2023-02-10T10:55:20;79.00;;;44.50;;
3050;SDS011;1535;51.098;6.414;2023-02-10T10:57:51;71.37;;;44.80;;
3050;SDS011;1535;51.098;6.414;2023-02-10T11:00:20;74.83;;;44.93;;
3050;SDS011;1535;51.098;6.414;2023-02-10T11:02:53;68.90;;;45.77;;
3050;SDS011;1535;51.098;6.414;2023-02-10T11:05:22;55.10;;;42.20;;
3050;SDS011;1535;51.098;6.414;2023-02-10T11:07:55;59.33;;;41.30;;
3050;SDS011;1535;51.098;6.414;2023-02-10T11:10:26;62.90;;;41.20;;
3050;SDS011;1535;51.098;6.414;2023-02-10T11:12:56;52.37;;;41.80;;
3050;SDS011;1535;51.098;6.414;2023-02-10T11:15:37;55.87;;;39.30;;
3050;SDS011;1535;51.098;6.414;2023-02-10T11:18:06;48.07;;;38.60;;
3050;SDS011;1535;51.098;6.414;2023-02-10T11:20:51;62.90;;;41.13;;
3050;SDS011;1535;51.098;6.414;2023-02-10T11:23:20;54.73;;;39.03;;
3050;SDS011;1535;51.098;6.414;2023-02-10T11:25:54;62.40;;;40.20;;
3050;SDS011;1535;51.098;6.414;2023-02-10T11:28:24;52.83;;;40.10;;
3050;SDS011;1535;51.098;6.414;2023-02-10T11:30:56;51.63;;;36.30;;
3050;SDS011;1535;51.098;6.414;2023-02-10T11:33:26;48.73;;;39.10;;
3050;SDS011;1535;51.098;6.414;2023-02-10T11:35:57;52.00;;;38.27;;
3050;SDS011;1535;51.098;6.414;2023-02-10T11:38:27;56.40;;;39.57;;
3050;SDS011;1535;51.098;6.414;2023-02-10T11:40:56;59.07;;;41.73;;
3050;SDS011;1535;51.098;6.414;2023-02-10T11:43:27;64.13;;;40.23;;
3050;SDS011;1535;51.098;6.414;2023-02-10T11:45:57;52.63;;;39.70;;
3050;SDS011;1535;51.098;6.414;2023-02-10T11:48:25;46.37;;;37.60;;
3050;SDS011;1535;51.098;6.414;2023-02-10T11:51:00;50.93;;;40.33;;
3050;SDS011;1535;51.098;6.414;2023-02-10T11:53:30;52.73;;;39.50;;
3050;SDS011;1535;51.098;6.414;2023-02-10T11:56:01;47.73;;;37.47;;
3050;SDS011;1535;51.098;6.414;2023-02-10T11:58:36;47.50;;;38.10;;
3050;SDS011;1535;51.098;6.414;2023-02-10T12:01:32;87.80;;;39.50;;
3050;SDS011;1535;51.098;6.414;2023-02-10T12:04:13;46.43;;;35.77;;
3050;SDS011;1535;51.098;6.414;2023-02-10T12:06:53;47.53;;;36.77;;
3050;SDS011;1535;51.098;6.414;2023-02-10T12:09:24;48.30;;;37.20;;
3050;SDS011;1535;51.098;6.414;2023-02-10T12:11:57;55.73;;;38.07;;
3050;SDS011;1535;51.098;6.414;2023-02-10T12:14:37;47.43;;;37.20;;
3050;SDS011;1535;51.098;6.414;2023-02-10T12:17:20;50.17;;;39.33;;
3050;SDS011;1535;51.098;6.414;2023-02-10T12:19:54;55.43;;;37.47;;
3050;SDS011;1535;51.098;6.414;2023-02-10T12:22:29;44.93;;;35.43;;
3050;SDS011;1535;51.098;6.414;2023-02-10T12:25:06;40.67;;;34.33;;
3050;SDS011;1535;51.098;6.414;2023-02-10T12:27:54;43.57;;;36.30;;
3050;SDS011;1535;51.098;6.414;2023-02-10T12:30:28;45.33;;;35.97;;
3050;SDS011;1535;51.098;6.414;2023-02-10T12:33:09;39.20;;;34.73;;
3050;SDS011;1535;51.098;6.414;2023-02-10T12:35:52;39.23;;;34.43;;
3050;SDS011;1535;51.098;6.414;2023-02-10T12:38:34;42.73;;;34.73;;
3050;SDS011;1535;51.098;6.414;2023-02-10T12:41:15;41.70;;;35.30;;
3050;SDS011;1535;51.098;6.414;2023-02-10T12:43:54;33.63;;;30.53;;
3050;SDS011;1535;51.098;6.414;2023-02-10T12:46:30;37.80;;;33.63;;
3050;SDS011;1535;51.098;6.414;2023-02-10T12:49:05;36.90;;;32.90;;
3050;SDS011;1535;51.098;6.414;2023-02-10T12:51:45;40.10;;;32.60;;
3050;SDS011;1535;51.098;6.414;2023-02-10T12:54:21;36.07;;;31.50;;
3050;SDS011;1535;51.098;6.414;2023-02-10T12:56:53;42.30;;;34.30;;
3050;SDS011;1535;51.098;6.414;2023-02-10T12:59:26;38.17;;;34.23;;
3050;SDS011;1535;51.098;6.414;2023-02-10T13:02:00;39.37;;;35.07;;
3050;SDS011;1535;51.098;6.414;2023-02-10T13:04:32;40.93;;;33.90;;
3050;SDS011;1535;51.098;6.414;2023-02-10T13:07:04;39.27;;;34.10;;
3050;SDS011;1535;51.098;6.414;2023-02-10T13:09:39;39.17;;;34.27;;
3050;SDS011;1535;51.098;6.414;2023-02-10T13:12:14;34.77;;;31.23;;
3050;SDS011;1535;51.098;6.414;2023-02-10T13:14:46;35.40;;;31.30;;
3050;SDS011;1535;51.098;6.414;2023-02-10T13:17:15;35.90;;;32.00;;
3050;SDS011;1535;51.098;6.414;2023-02-10T13:19:46;34.90;;;30.40;;
3050;SDS011;1535;51.098;6.414;2023-02-10T13:22:20;35.70;;;31.90;;
3050;SDS011;1535;51.098;6.414;2023-02-10T13:24:55;45.83;;;32.93;;
3050;SDS011;1535;51.098;6.414;2023-02-10T13:27:32;37.90;;;32.87;;
3050;SDS011;1535;51.098;6.414;2023-02-10T13:30:18;35.97;;;32.30;;
3050;SDS011;1535;51.098;6.414;2023-02-10T13:33:00;37.60;;;33.60;;
3050;SDS011;1535;51.098;6.414;2023-02-10T13:35:34;38.23;;;34.10;;
3050;SDS011;1535;51.098;6.414;2023-02-10T13:38:05;37.40;;;33.90;;
3050;SDS011;1535;51.098;6.414;2023-02-10T13:40:44;38.90;;;34.60;;
3050;SDS011;1535;51.098;6.414;2023-02-10T13:43:17;38.10;;;34.10;;
3050;SDS011;1535;51.098;6.414;2023-02-10T13:45:52;38.47;;;34.30;;
3050;SDS011;1535;51.098;6.414;2023-02-10T13:48:21;38.87;;;34.60;;
3050;SDS011;1535;51.098;6.414;2023-02-10T13:50:54;35.80;;;32.10;;
3050;SDS011;1535;51.098;6.414;2023-02-10T13:53:27;37.47;;;33.83;;
3050;SDS011;1535;51.098;6.414;2023-02-10T13:56:04;36.33;;;32.83;;
3050;SDS011;1535;51.098;6.414;2023-02-10T13:58:47;37.20;;;33.50;;
3050;SDS011;1535;51.098;6.414;2023-02-10T14:01:36;37.43;;;32.87;;
3050;SDS011;1535;51.098;6.414;2023-02-10T14:04:05;34.83;;;31.27;;
3050;SDS011;1535;51.098;6.414;2023-02-10T14:06:52;37.73;;;33.73;;
3050;SDS011;1535;51.098;6.414;2023-02-10T14:09:31;45.23;;;34.60;;
3050;SDS011;1535;51.098;6.414;2023-02-10T14:12:03;38.17;;;34.37;;
3050;SDS011;1535;51.098;6.414;2023-02-10T14:14:31;35.70;;;32.20;;
3050;SDS011;1535;51.098;6.414;2023-02-10T14:17:05;37.17;;;33.33;;
3050;SDS011;1535;51.098;6.414;2023-02-10T14:19:33;35.20;;;31.10;;
3050;SDS011;1535;51.098;6.414;2023-02-10T14:22:02;34.53;;;30.83;;
3050;SDS011;1535;51.098;6.414;2023-02-10T14:24:32;35.80;;;32.30;;
3050;SDS011;1535;51.098;6.414;2023-02-10T14:27:01;34.83;;;31.57;;
3050;SDS011;1535;51.098;6.414;2023-02-10T14:29:31;33.53;;;29.07;;
3050;SDS011;1535;51.098;6.414;2023-02-10T14:32:00;40.33;;;33.03;;
3050;SDS011;1535;51.098;6.414;2023-02-10T14:34:32;32.80;;;29.77;;
3050;SDS011;1535;51.098;6.414;2023-02-10T14:37:00;31.70;;;28.80;;
3050;SDS011;1535;51.098;6.414;2023-02-10T14:39:29;29.37;;;26.80;;
3050;SDS011;1535;51.098;6.414;2023-02-10T14:41:58;31.90;;;28.93;;
3050;SDS011;1535;51.098;6.414;2023-02-10T14:44:30;31.73;;;28.53;;
3050;SDS011;1535;51.098;6.414;2023-02-10T14:47:01;31.97;;;28.67;;
3050;SDS011;1535;51.098;6.414;2023-02-10T14:49:28;30.77;;;27.73;;
3050;SDS011;1535;51.098;6.414;2023-02-10T14:52:02;29.07;;;26.40;;
3050;SDS011;1535;51.098;6.414;2023-02-10T14:54:35;30.13;;;27.50;;
3050;SDS011;1535;51.098;6.414;2023-02-10T14:57:09;31.50;;;28.30;;
3050;SDS011;1535;51.098;6.414;2023-02-10T14:59:41;29.33;;;26.87;;
3050;SDS011;1535;51.098;6.414;2023-02-10T15:02:10;31.30;;;28.33;;
3050;SDS011;1535;51.098;6.414;2023-02-10T15:04:44;31.37;;;28.30;;
3050;SDS011;1535;51.098;6.414;2023-02-10T15:07:14;30.13;;;27.63;;
3050;SDS011;1535;51.098;6.414;2023-02-10T15:09:44;31.47;;;28.77;;
3050;SDS011;1535;51.098;6.414;2023-02-10T15:12:14;30.33;;;27.60;;
3050;SDS011;1535;51.098;6.414;2023-02-10T15:14:43;30.90;;;28.10;;
3050;SDS011;1535;51.098;6.414;2023-02-10T15:17:14;30.70;;;27.73;;
3050;SDS011;1535;51.098;6.414;2023-02-10T15:19:55;30.47;;;27.67;;